Best Free Video API Site

AVDBAPI.COM

Search the catalog, inspect records, and copy clean API URLs from one fast dashboard.

Telegram Join Our Telegram Community for Updates!
Today
64
Updates Today
Censored
313974
Censored Videos
Total
474107
Total Videos

Video List

Latest records ordered by update time.

ID Name CODE Category Updated API
268309 K1443 Prey Female --Hina Kawakami K1443 Uncensored 2025-08-29 13:16:30 API
268308 092418_747 Model Collection Mikako Minami 092418_747 Uncensored 2025-08-29 13:16:20 API
268307 HEYZO-2271 Indecent temptation of a mature slut-Agel makes you feel good with dirty words! ~ HEYZO-2271 Uncensored 2025-08-29 13:16:10 API
268306 041319-069 Appearance NG! Sunglasses Mature Woman 2 Shiori Nakayama 041319-069 Uncensored 2025-08-29 13:16:00 API
268305 H4610-ORI1750 Ayane Takubo, 21 years old H4610-ORI1750 Uncensored 2025-08-29 13:15:50 API
268304 111619-01 I will open my crotch today to earn a job hunting cost for the cabin attendant 111619-01 Uncensored 2025-08-29 13:15:40 API
268303 071720-001 Sophisticated adult healing pavilion ~ We will serve with sensitive masochist milk of H cup ~ Riina Okamoto 071720-001 Uncensored 2025-08-29 13:15:30 API
268302 FC2-PPV-4464531 First shoot/look! Limited to 3 days! A perverted woman who accepts adventure with NPNB, expresses herself, and seeks to reveal her desires every day... a woman with a perverse tendency, tendency ◯ 2 2 2 2 2 2 2 2 2 2 2 2 2 2 2 2 2 2 2 2 FC2-PPV-4464531 Uncensored 2025-08-29 13:15:20 API
268301 H0930-KI200510 Makoto Kobori 38 years old H0930-KI200510 Uncensored 2025-08-29 13:15:10 API
268300 K1444 Prey Female --Kanako Sasaki K1444 Uncensored 2025-08-29 13:15:00 API
268298 HEYZO-2272 I'll give you a pie with Nanako Asahina! HEYZO-2272 Uncensored 2025-08-29 13:14:40 API
268297 092618_748 Chinguri return anal messing with blowjob special 092618_748 Uncensored 2025-08-29 13:14:30 API
268296 041319-068 In the case of Yui Mihashi who ejaculates on his wife's boobs 041319-068 Uncensored 2025-08-29 13:14:20 API
268295 HEYZO-2293 Madoka [Madoka] Pink Nipple Amateur Blow Oral Launch HEYZO-2293 Uncensored 2025-08-29 13:14:10 API
268294 111919-01 A slender beauty who is inexperienced in the middle is a continuous big cum 111919-01 Uncensored 2025-08-29 13:14:00 API
268293 H4610-KI210228 Miki Momoi 27 years old H4610-KI210228 Uncensored 2025-08-29 13:13:50 API
268292 C0930-KI191116 Gold pack 20 years old C0930-KI191116 Uncensored 2025-08-29 13:13:40 API
268291 FC2-PPV-4464411 A cute big sister, smiling, smiling with emotesando. He is a tall, slim and beautiful woman. This is a model of the eternal future! I believe in good and clever rhetoric. A big Duke chicken will be picked among a very small cat, in the sha FC2-PPV-4464411 Uncensored 2025-08-29 13:13:30 API
268290 H0930-KI200512 Kana Miyagi 30 years old H0930-KI200512 Uncensored 2025-08-29 13:13:20 API
268289 071820-001 Drinking figure Eloy GP ~ Drink thoroughly! Take off! Suck! Take a semen! ~ Chisato Takayama and Nana Ueyama 071820-001 Uncensored 2025-08-29 13:13:10 API
268287 092018_745 Glamorous snow-dyed China 092018_745 Uncensored 2025-08-29 13:12:50 API
268286 041619-070 A mature woman who is not a beautiful woman but wants to spear 041619-070 Uncensored 2025-08-29 13:12:40 API
268285 C0930-KI191119 Azusa Hatanaka 40 years old C0930-KI191119 Uncensored 2025-08-29 13:12:30 API
268284 112119-01 No makeup amateur ~ I don't want to see it ~ 112119-01 Uncensored 2025-08-29 13:12:20 API
268283 HEYZO-2273 Indecent waist of a coveted woman HEYZO-2273 Uncensored 2025-08-29 13:12:10 API
268282 H4610-KI210227 Request work collection H4610-KI210227 Uncensored 2025-08-29 13:12:00 API
268281 H0930-KI200514 Ritsuko Harada 32 years old H0930-KI200514 Uncensored 2025-08-29 13:11:50 API
268280 072120-001 Rino Sakuragi, a beautiful wife who is too defenseless to welcome guests naked 072120-001 Uncensored 2025-08-29 13:11:40 API
268279 100218_750 Affair Creampie Cohabitation Life While My Husband Is Away 100218_750 Uncensored 2025-08-29 13:11:30 API
268278 041819-071 Amateur Wife's First Shooting Document 79 Michiko Doi 041819-071 Uncensored 2025-08-29 13:11:20 API
268277 C0930-KI191121 Michiru Saeki 43 years old C0930-KI191121 Uncensored 2025-08-29 13:11:10 API
268276 FC2-PPV-4464501 Aoki is very popular among the housewives at Tagura, with about 10,000 followers. I will make love with approved desire! But I am a disgusting married woman who masturbates in public FC2-PPV-4464501 Uncensored 2025-08-29 13:11:00 API
268275 HEYZO-2274 I hugged my boyish friend sister! HEYZO-2274 Uncensored 2025-08-29 13:10:50 API
268274 112219-01 Treasured pussy selection-please see Yui's pussy- 112219-01 Uncensored 2025-08-29 13:10:40 API
268273 100418_751 Model Collection Louis Hayakawa 100418_751 Uncensored 2025-08-29 13:10:30 API
268272 H0930-TK0017 Mikiko Ogata 37 years old H0930-TK0017 Uncensored 2025-08-29 13:10:20 API
268271 H4610-KI210302 Sarina Takahashi, 22 years old H4610-KI210302 Uncensored 2025-08-29 13:10:10 API
268270 K1445 Prey Female --Miyuki Matsuda K1445 Uncensored 2025-08-29 13:10:00 API
268269 072220-001 THE unreleased 072220-001 Uncensored 2025-08-29 13:09:50 API
268268 C0930-KI191123 Selfie masturbation feature C0930-KI191123 Uncensored 2025-08-29 13:09:40 API
268267 112319-01 I wanted to challenge cum swallowing by watching AV 112319-01 Uncensored 2025-08-29 13:09:30 API
268266 FC2-PPV-4464153 A famous model and 49,000 interested people came to Kaiwaka University. The second wheel is slim and beautiful. FC2-PPV-4464153 Uncensored 2025-08-29 13:09:20 API
268265 HEYZO-2275 May Doll Vol.16 ~ Master's Compliant Sex Doll ~ HEYZO-2275 Uncensored 2025-08-29 13:09:10 API
268264 042019-073 Housewife Hidden Camera 25 ~ Blindfold and have sex with her husband !? ~ 042019-073 Uncensored 2025-08-29 13:09:00 API
268263 100618_752 Extreme shooting Kotomi Yamasaki 100618_752 Uncensored 2025-08-29 13:08:50 API
268262 C0930-HITOZUMA1300 Haruka Fuwa 29 years old C0930-HITOZUMA1300 Uncensored 2025-08-29 13:08:40 API
268261 072420-001 Faint in agony! Mr. Aoyama ~ New female teacher wants to be taught by vaginal cum shot ~ Hana Aoyama 072420-001 Uncensored 2025-08-29 13:08:30 API
268260 H0930-KI200517 Hitoe Kanamori 29 years old H0930-KI200517 Uncensored 2025-08-29 13:08:20 API
268259 SKY-235 Sky Angel 146 This is SKY-235 Uncensored 2025-08-29 13:08:10 API
268258 112619-01 How this girl works ~ Please measure the breasts of beautiful big breasts ~ 112619-01 Uncensored 2025-08-29 13:08:00 API